Time;durP1;ratioP1;P1;durP2;ratioP2;P2;SDS_P1;SDS_P2;PMS_P1;PMS_P2;Temp;Humidity;BMP_temperature;BMP_pressure;BME280_temperature;BME280_humidity;BME280_pressure;Samples;Min_cycle;Max_cycle;Signal;HPM_P1;HPM_P2
2021/10/27 00:00:07;;;;;;;6.63;4.57;;;9.30;99.90;;;;;;5093982;28;20491;-77
2021/10/27 00:02:34;;;;;;;6.78;4.63;;;9.20;99.90;;;;;;5095091;28;20449;-78
2021/10/27 00:05:01;;;;;;;8.10;4.87;;;9.20;99.90;;;;;;5094267;28;20207;-78
2021/10/27 00:07:28;;;;;;;7.63;4.47;;;9.20;99.90;;;;;;5095736;28;20525;-77
2021/10/27 00:09:54;;;;;;;6.90;4.20;;;9.20;99.90;;;;;;5098767;28;20961;-77
2021/10/27 00:12:21;;;;;;;6.68;4.63;;;9.10;99.90;;;;;;5094956;28;20493;-79
2021/10/27 00:14:49;;;;;;;7.00;4.50;;;9.10;99.90;;;;;;5094716;28;20214;-77
2021/10/27 00:17:16;;;;;;;8.82;4.28;;;9.00;99.90;;;;;;5094453;28;20464;-77
2021/10/27 00:19:43;;;;;;;6.95;4.68;;;9.00;99.90;;;;;;5095944;28;20206;-78
2021/10/27 00:22:10;;;;;;;7.33;4.97;;;9.00;99.90;;;;;;5097698;28;20236;-78
2021/10/27 00:24:37;;;;;;;9.07;4.20;;;9.10;99.90;;;;;;5096397;28;20459;-78
2021/10/27 00:27:06;;;;;;;5.35;4.40;;;9.10;99.90;;;;;;5095357;28;20540;-77
2021/10/27 00:29:33;;;;;;;8.20;5.30;;;9.00;99.90;;;;;;5094982;28;20249;-78
2021/10/27 00:32:01;;;;;;;7.00;4.15;;;9.00;99.90;;;;;;5094065;28;20491;-77
2021/10/27 00:34:28;;;;;;;9.13;4.70;;;8.90;99.90;;;;;;5095019;28;20678;-78
2021/10/27 00:36:55;;;;;;;6.57;4.80;;;8.90;99.90;;;;;;5095187;28;20208;-78
2021/10/27 00:39:22;;;;;;;7.73;4.17;;;8.90;99.90;;;;;;5094767;28;20450;-78
2021/10/27 00:41:49;;;;;;;7.93;4.57;;;9.00;99.90;;;;;;5093935;28;20851;-78
2021/10/27 00:44:20;;;;;;;7.73;4.80;;;8.90;99.90;;;;;;5094471;28;20475;-77
2021/10/27 00:46:48;;;;;;;6.70;4.70;;;8.90;99.90;;;;;;5094085;28;20949;-77
2021/10/27 00:49:16;;;;;;;7.70;4.78;;;8.90;99.90;;;;;;5094120;28;20827;-79
2021/10/27 00:51:43;;;;;;;6.97;4.60;;;8.90;99.90;;;;;;5095068;28;20227;-79
2021/10/27 00:54:10;;;;;;;8.47;4.73;;;8.90;99.90;;;;;;5096271;28;20449;-79
2021/10/27 00:56:37;;;;;;;6.83;4.60;;;8.90;99.90;;;;;;5095078;28;20451;-79
2021/10/27 00:59:05;;;;;;;6.80;4.80;;;8.90;99.90;;;;;;5094552;28;20460;-78
2021/10/27 01:01:32;;;;;;;7.37;4.80;;;8.90;99.90;;;;;;5093202;28;20469;-77
2021/10/27 01:04:00;;;;;;;7.10;4.80;;;9.00;99.90;;;;;;5094232;28;20803;-78
2021/10/27 01:06:28;;;;;;;7.73;4.97;;;9.00;99.90;;;;;;5094797;28;20457;-77
2021/10/27 01:08:55;;;;;;;7.57;5.13;;;9.00;99.90;;;;;;5096781;28;20445;-77
2021/10/27 01:11:22;;;;;;;7.07;5.63;;;9.00;99.90;;;;;;5096949;28;20497;-78
2021/10/27 01:13:49;;;;;;;7.35;4.82;;;9.10;99.90;;;;;;5094986;28;20458;-78
2021/10/27 01:16:16;;;;;;;7.73;4.50;;;9.10;99.90;;;;;;5102068;28;20207;-77
2021/10/27 01:18:43;;;;;;;8.30;4.40;;;9.10;99.90;;;;;;5100222;28;20445;-78
2021/10/27 01:21:11;;;;;;;8.17;6.00;;;9.10;99.90;;;;;;5097300;28;20473;-77
2021/10/27 01:23:38;;;;;;;7.80;5.65;;;9.00;99.90;;;;;;5097645;28;20488;-78
2021/10/27 01:26:06;;;;;;;8.17;4.70;;;8.90;99.90;;;;;;5097421;28;20207;-78
2021/10/27 01:28:38;;;;;;;6.93;4.90;;;8.80;99.90;;;;;;5098276;28;20444;-78
2021/10/27 01:31:05;;;;;;;9.67;4.70;;;8.80;99.90;;;;;;5103291;28;20480;-78
2021/10/27 01:33:33;;;;;;;7.13;5.22;;;8.80;99.90;;;;;;5110309;28;20519;-78
2021/10/27 01:35:59;;;;;;;7.90;5.60;;;8.80;99.90;;;;;;5104098;28;20228;-78
2021/10/27 01:38:27;;;;;;;8.43;5.10;;;8.90;99.90;;;;;;5098701;28;20449;-78
2021/10/27 01:40:54;;;;;;;8.30;5.95;;;8.90;99.90;;;;;;5098153;28;20231;-78
2021/10/27 01:43:21;;;;;;;8.87;5.30;;;8.80;99.90;;;;;;5098066;28;20202;-78
2021/10/27 01:45:48;;;;;;;8.38;5.32;;;8.90;99.90;;;;;;5098264;28;20945;-78
2021/10/27 01:48:15;;;;;;;6.97;5.03;;;8.80;99.90;;;;;;5098344;28;20619;-78
2021/10/27 01:50:43;;;;;;;7.25;5.40;;;8.80;99.90;;;;;;5098226;28;20483;-78
2021/10/27 01:53:09;;;;;;;10.10;7.17;;;8.80;99.90;;;;;;5098563;28;20212;-77
2021/10/27 01:55:38;;;;;;;14.15;6.05;;;8.70;99.90;;;;;;5098816;28;20455;-78
2021/10/27 01:58:05;;;;;;;8.98;5.90;;;8.60;99.90;;;;;;5098728;28;20206;-78
2021/10/27 02:00:32;;;;;;;8.95;6.00;;;8.50;99.90;;;;;;5099371;28;20228;-78
2021/10/27 02:02:59;;;;;;;11.02;6.25;;;8.40;99.90;;;;;;5099560;28;20213;-78
2021/10/27 02:05:26;;;;;;;10.10;6.73;;;8.50;99.90;;;;;;5098457;28;20203;-78
2021/10/27 02:07:53;;;;;;;11.83;6.20;;;8.50;99.90;;;;;;5097661;28;20474;-78
2021/10/27 02:10:20;;;;;;;9.02;5.45;;;8.40;99.90;;;;;;5097957;28;20850;-78
2021/10/27 02:12:48;;;;;;;10.40;6.00;;;8.40;99.90;;;;;;5097284;28;20270;-78
2021/10/27 02:15:15;;;;;;;9.15;5.47;;;8.50;99.90;;;;;;5097560;28;20295;-78
2021/10/27 02:17:41;;;;;;;12.15;5.32;;;8.50;99.90;;;;;;5097904;28;20275;-78
2021/10/27 02:20:10;;;;;;;8.98;5.30;;;8.40;99.90;;;;;;5097088;28;20217;-78
2021/10/27 02:22:37;;;;;;;8.68;5.43;;;8.30;99.90;;;;;;5097758;28;20207;-78
2021/10/27 02:25:04;;;;;;;8.20;5.88;;;8.30;99.90;;;;;;5098488;28;20238;-77
2021/10/27 02:27:31;;;;;;;7.43;5.30;;;8.40;99.90;;;;;;5098355;28;20213;-78
2021/10/27 02:29:59;;;;;;;9.57;5.90;;;8.50;99.90;;;;;;5098162;28;20209;-78
2021/10/27 02:32:26;;;;;;;8.30;5.30;;;8.50;99.90;;;;;;5097533;28;20580;-78
2021/10/27 02:34:53;;;;;;;7.57;5.60;;;8.50;99.90;;;;;;5097566;28;20460;-78
2021/10/27 02:37:20;;;;;;;8.05;5.85;;;8.50;99.90;;;;;;5098938;28;20533;-78
2021/10/27 02:39:47;;;;;;;9.50;5.53;;;8.50;99.90;;;;;;5113359;28;20211;-78
2021/10/27 02:42:15;;;;;;;8.07;5.80;;;8.50;99.90;;;;;;5105071;28;20477;-78
2021/10/27 02:44:42;;;;;;;7.13;5.50;;;8.50;99.90;;;;;;5099560;28;20214;-78
2021/10/27 02:47:10;;;;;;;8.15;5.55;;;8.50;99.90;;;;;;5099712;28;20217;-78
2021/10/27 02:49:37;;;;;;;9.10;5.80;;;8.50;99.90;;;;;;5098177;28;20203;-79
2021/10/27 02:52:04;;;;;;;8.95;5.75;;;8.50;99.90;;;;;;5097153;28;20493;-78
2021/10/27 02:54:31;;;;;;;7.90;5.43;;;8.40;99.90;;;;;;5097396;28;20209;-78
2021/10/27 02:56:58;;;;;;;8.90;5.95;;;8.40;99.90;;;;;;5106459;28;20451;-78
2021/10/27 02:59:24;;;;;;;8.23;5.47;;;8.40;99.90;;;;;;5097669;28;20210;-78
2021/10/27 03:01:51;;;;;;;8.98;6.35;;;8.40;99.90;;;;;;5097176;28;20218;-78
2021/10/27 03:04:19;;;;;;;8.30;6.38;;;8.40;99.90;;;;;;5097206;28;20213;-78
2021/10/27 03:06:46;;;;;;;7.63;5.82;;;8.40;99.90;;;;;;5096903;28;20213;-78
2021/10/27 03:09:13;;;;;;;9.63;6.20;;;8.30;99.90;;;;;;5097500;28;20206;-78
2021/10/27 03:11:40;;;;;;;10.27;6.80;;;8.30;99.90;;;;;;5096710;28;20492;-78
2021/10/27 03:14:08;;;;;;;8.70;5.77;;;8.30;99.90;;;;;;5096105;28;20225;-77
2021/10/27 03:16:35;;;;;;;9.60;5.72;;;8.30;99.90;;;;;;5094608;28;20455;-77
2021/10/27 03:19:02;;;;;;;10.05;6.68;;;8.30;99.90;;;;;;5095117;28;20210;-77
2021/10/27 03:21:30;;;;;;;7.55;5.85;;;8.30;99.90;;;;;;5095491;28;20222;-77
2021/10/27 03:23:57;;;;;;;7.30;6.13;;;8.40;99.90;;;;;;5096103;28;20203;-77
2021/10/27 03:26:24;;;;;;;9.80;7.07;;;8.40;99.90;;;;;;5095521;28;20583;-77
2021/10/27 03:28:51;;;;;;;10.35;6.30;;;8.40;99.90;;;;;;5095395;28;20210;-77
2021/10/27 03:31:18;;;;;;;8.48;5.85;;;8.30;99.90;;;;;;5095017;28;20233;-77
2021/10/27 03:33:45;;;;;;;8.13;5.60;;;8.20;99.90;;;;;;5095232;28;20215;-77
2021/10/27 03:36:12;;;;;;;10.70;6.13;;;8.20;99.90;;;;;;5095772;28;20289;-77
2021/10/27 03:38:41;;;;;;;11.13;6.95;;;8.30;99.90;;;;;;5094917;28;20213;-77
2021/10/27 03:41:08;;;;;;;11.30;5.80;;;8.30;99.90;;;;;;5094770;28;20231;-77
2021/10/27 03:43:35;;;;;;;7.15;5.70;;;8.10;99.90;;;;;;5095314;28;20608;-77
2021/10/27 03:46:02;;;;;;;12.15;6.30;;;8.10;99.90;;;;;;5094946;28;20206;-77
2021/10/27 03:48:28;;;;;;;8.20;6.07;;;8.10;99.90;;;;;;5094755;28;20302;-78
2021/10/27 03:50:55;;;;;;;11.73;6.90;;;8.00;99.90;;;;;;5094789;28;20227;-78
2021/10/27 03:53:22;;;;;;;8.67;6.27;;;8.00;99.90;;;;;;5094908;28;20457;-78
2021/10/27 03:55:50;;;;;;;7.70;5.57;;;8.10;99.90;;;;;;5095490;28;20464;-78
2021/10/27 03:58:17;;;;;;;7.72;5.90;;;8.00;99.90;;;;;;5094738;28;20700;-77
2021/10/27 04:00:44;;;;;;;11.63;6.88;;;7.90;99.90;;;;;;5094864;28;20574;-77
2021/10/27 04:03:12;;;;;;;9.82;6.45;;;7.90;99.90;;;;;;5093822;28;20738;-77
2021/10/27 04:05:39;;;;;;;10.98;6.93;;;7.90;99.90;;;;;;5093783;28;20214;-77
2021/10/27 04:08:06;;;;;;;10.43;6.75;;;7.90;99.90;;;;;;5093959;28;20584;-77
2021/10/27 04:10:33;;;;;;;11.50;6.90;;;7.90;99.90;;;;;;5100587;28;20313;-77
2021/10/27 04:13:01;;;;;;;9.60;6.25;;;7.90;99.90;;;;;;5100952;28;20260;-77
2021/10/27 04:15:28;;;;;;;13.30;6.47;;;7.90;99.90;;;;;;5095052;28;20213;-77
2021/10/27 04:17:55;;;;;;;8.13;6.50;;;7.90;99.90;;;;;;5101941;28;20206;-77
2021/10/27 04:20:22;;;;;;;8.70;6.35;;;8.00;99.90;;;;;;5098770;28;20409;-77
2021/10/27 04:22:49;;;;;;;9.85;6.90;;;8.00;99.90;;;;;;5094530;28;20214;-77
2021/10/27 04:25:16;;;;;;;8.30;6.40;;;8.00;99.90;;;;;;5094641;28;20207;-77
2021/10/27 04:27:43;;;;;;;9.25;6.35;;;8.10;99.90;;;;;;5094035;28;20213;-77
2021/10/27 04:30:12;;;;;;;12.10;6.90;;;8.00;99.90;;;;;;5092987;28;20303;-77
2021/10/27 04:32:41;;;;;;;11.05;6.68;;;8.00;99.90;;;;;;5093226;28;20227;-77
2021/10/27 04:35:08;;;;;;;10.55;6.90;;;8.00;99.90;;;;;;5093894;28;20214;-78
2021/10/27 04:37:37;;;;;;;8.60;6.43;;;7.90;99.90;;;;;;5095301;28;20202;-79
2021/10/27 04:40:05;;;;;;;9.63;7.18;;;7.90;99.90;;;;;;5095985;28;20455;-83
2021/10/27 04:42:32;;;;;;;9.65;6.45;;;7.90;99.90;;;;;;5095929;28;20281;-79
2021/10/27 04:44:59;;;;;;;8.05;6.55;;;7.80;99.90;;;;;;5095378;28;20206;-78
2021/10/27 04:47:27;;;;;;;9.73;7.03;;;7.80;99.90;;;;;;5096076;28;20187;-78
2021/10/27 04:49:54;;;;;;;11.07;7.28;;;7.80;99.90;;;;;;5096511;28;20301;-78
2021/10/27 04:52:20;;;;;;;17.90;6.97;;;7.50;99.90;;;;;;5102717;28;20262;-78
2021/10/27 04:54:47;;;;;;;9.60;7.13;;;7.90;99.90;;;;;;5113139;28;20452;-78
2021/10/27 04:57:14;;;;;;;9.95;6.32;;;8.00;99.90;;;;;;5128036;22;20239;-80
2021/10/27 04:59:42;;;;;;;12.57;8.13;;;8.00;99.90;;;;;;5101402;28;20207;-79
2021/10/27 05:02:09;;;;;;;10.43;7.00;;;8.20;99.90;;;;;;5103256;28;20190;-78
2021/10/27 05:04:38;;;;;;;12.80;7.47;;;8.10;99.90;;;;;;5115401;28;20269;-78
2021/10/27 05:07:05;;;;;;;12.05;8.02;;;8.00;99.90;;;;;;5108866;28;20252;-79
2021/10/27 05:09:32;;;;;;;12.30;7.75;;;7.90;99.90;;;;;;5105245;28;20256;-78
2021/10/27 05:11:59;;;;;;;12.90;8.48;;;7.90;99.90;;;;;;5102646;28;20292;-79
2021/10/27 05:14:26;;;;;;;13.70;8.32;;;7.80;99.90;;;;;;5100598;28;20244;-79
2021/10/27 05:16:53;;;;;;;14.43;9.05;;;7.80;99.90;;;;;;5100226;28;20225;-78
2021/10/27 05:19:20;;;;;;;11.65;7.78;;;7.80;99.90;;;;;;5100030;28;20206;-78
2021/10/27 05:21:48;;;;;;;14.25;8.25;;;7.50;99.90;;;;;;5100737;28;20286;-79
2021/10/27 05:24:15;;;;;;;13.75;8.40;;;7.80;99.90;;;;;;5100454;28;20219;-78
2021/10/27 05:26:42;;;;;;;14.82;9.00;;;8.00;99.90;;;;;;5100066;28;20208;-79
2021/10/27 05:29:09;;;;;;;12.85;9.32;;;8.00;99.90;;;;;;5100280;28;20301;-79
2021/10/27 05:31:35;;;;;;;14.68;9.98;;;8.10;99.90;;;;;;5100715;28;20586;-79
2021/10/27 05:34:02;;;;;;;12.60;8.70;;;8.30;99.90;;;;;;5099956;28;20211;-78
2021/10/27 05:36:29;;;;;;;10.80;8.25;;;8.30;99.90;;;;;;5099578;28;20214;-78
2021/10/27 05:38:57;;;;;;;12.05;8.70;;;8.30;99.90;;;;;;5100295;28;20338;-78
2021/10/27 05:41:24;;;;;;;10.82;7.97;;;8.40;99.90;;;;;;5102246;28;20203;-79
2021/10/27 05:43:51;;;;;;;11.35;8.52;;;8.40;99.90;;;;;;5100303;28;20196;-79
2021/10/27 05:46:20;;;;;;;12.90;8.55;;;8.40;99.90;;;;;;5100251;28;20597;-79
2021/10/27 05:48:51;;;;;;;10.45;8.20;;;8.50;99.90;;;;;;5102494;28;20222;-77
2021/10/27 05:51:23;;;;;;;12.07;8.50;;;8.50;99.90;;;;;;5110341;28;20226;-78
2021/10/27 05:56:37;;;;;;;12.20;9.13;;;8.60;99.90;;;;;;5112976;28;20207;-80
2021/10/27 05:59:04;;;;;;;13.93;8.82;;;8.60;99.90;;;;;;5099619;28;20437;-80
2021/10/27 06:01:31;;;;;;;12.05;8.73;;;8.60;99.90;;;;;;5099877;28;20298;-79
2021/10/27 06:03:58;;;;;;;14.90;9.57;;;8.60;99.90;;;;;;5100294;28;20754;-79
2021/10/27 06:06:25;;;;;;;10.60;8.40;;;8.70;99.90;;;;;;5106854;28;20444;-79
2021/10/27 06:08:54;;;;;;;12.23;9.23;;;8.60;99.90;;;;;;5108146;28;20463;-78
2021/10/27 06:11:21;;;;;;;13.03;9.73;;;8.70;99.90;;;;;;5098527;28;20630;-78
2021/10/27 06:13:50;;;;;;;14.35;8.80;;;8.70;99.90;;;;;;5099948;28;20492;-81
2021/10/27 06:16:17;;;;;;;14.50;8.60;;;8.70;99.90;;;;;;5099058;28;20202;-81
2021/10/27 06:18:45;;;;;;;12.03;8.50;;;8.70;99.90;;;;;;5101096;28;20548;-87
2021/10/27 06:21:13;;;;;;;11.87;8.10;;;8.80;99.90;;;;;;5103243;28;20496;-80
2021/10/27 06:23:41;;;;;;;13.18;9.85;;;8.80;99.90;;;;;;5102954;28;20472;-80
2021/10/27 06:26:08;;;;;;;13.40;8.90;;;8.80;99.90;;;;;;5099738;28;20196;-80
2021/10/27 06:28:42;;;;;;;11.85;8.50;;;8.80;99.90;;;;;;5100699;28;20541;-79
2021/10/27 06:31:13;;;;;;;10.73;8.70;;;8.80;99.90;;;;;;5099885;28;20203;-78
2021/10/27 06:33:51;;;;;;;11.77;8.27;;;8.80;99.90;;;;;;5107352;28;20473;-78
2021/10/27 06:36:23;;;;;;;14.90;9.95;;;8.80;99.90;;;;;;5102318;28;20214;-79
2021/10/27 06:39:25;;;;;;;11.33;8.87;;;8.70;99.90;;;;;;5115626;28;20231;-78
2021/10/27 06:47:24;;;;;;;11.73;9.27;;;9.10;99.90;;;;;;5098205;28;20241;-79
2021/10/27 06:49:51;;;;;;;12.10;9.77;;;9.20;99.90;;;;;;5098237;28;20454;-77
2021/10/27 06:52:18;;;;;;;11.60;8.07;;;9.30;99.90;;;;;;5097824;28;21015;-79
2021/10/27 06:54:49;;;;;;;12.40;8.80;;;9.30;99.90;;;;;;5098609;28;20453;-80
2021/10/27 06:57:17;;;;;;;15.07;10.10;;;9.40;99.90;;;;;;5097845;28;20859;-78
2021/10/27 06:59:44;;;;;;;13.50;9.97;;;9.50;99.90;;;;;;5098962;28;20953;-78
2021/10/27 07:05:12;;;;;;;15.43;9.83;;;9.50;99.90;;;;;;5099067;28;20416;-80
2021/10/27 07:15:59;;;;;;;14.87;10.10;;;9.70;99.90;;;;;;5099453;28;20414;-80
2021/10/27 07:18:26;;;;;;;17.20;10.17;;;9.70;99.90;;;;;;5098816;28;20887;-80
2021/10/27 07:20:54;;;;;;;12.87;9.53;;;9.70;99.90;;;;;;5099507;28;20424;-80
2021/10/27 07:23:21;;;;;;;13.77;9.07;;;9.80;99.90;;;;;;5099499;28;20452;-80
2021/10/27 07:25:56;;;;;;;14.83;10.33;;;9.80;99.90;;;;;;5099643;28;20453;-81
2021/10/27 07:28:24;;;;;;;15.17;9.70;;;9.90;99.90;;;;;;5106238;28;20477;-80
2021/10/27 07:30:52;;;;;;;14.93;9.77;;;10.00;99.90;;;;;;5109617;28;20458;-80
2021/10/27 07:33:19;;;;;;;12.90;9.73;;;10.00;99.90;;;;;;5098417;28;20600;-81
2021/10/27 07:35:49;;;;;;;14.00;10.40;;;10.10;99.90;;;;;;5099057;28;20555;-80
2021/10/27 07:41:01;;;;;;;14.37;9.53;;;10.30;99.90;;;;;;5098755;28;20482;-80
2021/10/27 07:43:30;;;;;;;13.67;9.47;;;10.40;99.90;;;;;;5101920;28;20450;-79
2021/10/27 07:45:57;;;;;;;11.67;9.67;;;10.30;99.90;;;;;;5106276;28;20541;-82
2021/10/27 07:48:24;;;;;;;13.00;10.20;;;10.50;99.90;;;;;;5099211;28;20556;-82
2021/10/27 07:50:51;;;;;;;13.30;9.13;;;10.60;99.90;;;;;;5100689;28;20498;-82
2021/10/27 07:53:22;;;;;;;16.80;9.93;;;10.60;99.90;;;;;;5099573;28;20460;-83
2021/10/27 07:55:51;;;;;;;12.80;9.33;;;10.60;99.90;;;;;;5100254;28;20881;-81
2021/10/27 07:58:19;;;;;;;15.60;9.30;;;10.60;99.90;;;;;;5100813;28;20495;-81
2021/10/27 08:00:47;;;;;;;12.20;9.37;;;10.70;99.90;;;;;;5103589;28;20435;-80
2021/10/27 08:03:15;;;;;;;12.83;10.03;;;10.80;99.90;;;;;;5104357;28;20484;-80
2021/10/27 08:05:43;;;;;;;14.73;10.60;;;10.80;99.90;;;;;;5101627;28;20454;-80
2021/10/27 08:08:13;;;;;;;12.50;9.70;;;10.90;99.90;;;;;;5104109;28;20467;-79
2021/10/27 08:10:42;;;;;;;15.57;10.53;;;10.90;99.90;;;;;;5111285;28;20433;-79
2021/10/27 08:13:10;;;;;;;12.00;8.90;;;11.00;99.90;;;;;;5106046;28;20511;-79
2021/10/27 08:15:37;;;;;;;13.13;9.60;;;11.10;99.90;;;;;;5110500;28;20494;-80
2021/10/27 08:18:10;;;;;;;12.43;9.43;;;11.10;99.90;;;;;;5097998;28;20570;-78
2021/10/27 08:20:37;;;;;;;14.00;9.90;;;11.10;99.90;;;;;;5098751;28;20926;-78
2021/10/27 08:23:07;;;;;;;14.73;9.93;;;11.20;99.90;;;;;;5096104;28;20482;-79
2021/10/27 08:25:36;;;;;;;14.20;11.00;;;11.30;99.90;;;;;;5095478;28;20442;-78
2021/10/27 08:28:08;;;;;;;15.73;10.97;;;11.10;99.90;;;;;;5097957;28;20516;-77
2021/10/27 08:30:40;;;;;;;12.87;10.20;;;11.00;99.90;;;;;;5109285;28;20812;-78
2021/10/27 08:33:07;;;;;;;11.87;8.60;;;11.00;99.90;;;;;;5096377;28;20466;-79
2021/10/27 08:35:35;;;;;;;13.27;10.60;;;11.00;99.90;;;;;;5096885;28;20442;-80
2021/10/27 08:38:03;;;;;;;14.90;10.53;;;11.30;99.90;;;;;;5096462;28;20473;-79
2021/10/27 08:40:31;;;;;;;17.70;10.83;;;11.30;99.90;;;;;;5097528;28;20504;-80
2021/10/27 08:42:59;;;;;;;14.00;9.97;;;11.10;99.90;;;;;;5096525;28;20464;-79
2021/10/27 08:45:29;;;;;;;12.97;10.23;;;11.10;99.90;;;;;;5096892;28;20553;-79
2021/10/27 08:47:56;;;;;;;19.00;11.30;;;11.20;99.90;;;;;;5096546;28;20909;-78
2021/10/27 08:50:24;;;;;;;14.07;10.70;;;11.30;99.90;;;;;;5096758;28;20482;-79
2021/10/27 08:52:52;;;;;;;17.67;10.50;;;11.60;99.90;;;;;;5097651;28;20541;-79
2021/10/27 08:55:20;;;;;;;11.33;9.07;;;11.70;99.90;;;;;;5096562;28;20824;-78
2021/10/27 08:57:49;;;;;;;20.73;10.80;;;11.80;99.90;;;;;;5096604;28;20985;-79
2021/10/27 09:00:19;;;;;;;16.70;9.77;;;12.00;99.90;;;;;;5095613;28;20437;-78
2021/10/27 09:05:57;;;;;;;16.00;10.40;;;12.30;99.90;;;;;;5096289;28;20407;-78
2021/10/27 09:08:43;;;;;;;13.40;10.77;;;12.50;99.90;;;;;;5098504;28;20989;-78
2021/10/27 09:33:34;;;;;;;19.17;10.57;;;12.30;99.90;;;;;;5096545;28;20422;-79
2021/10/27 09:37:38;;;;;;;12.90;10.60;;;12.30;99.90;;;;;;5075278;28;20421;-79
2021/10/27 09:40:37;;;;;;;13.47;11.03;;;12.40;99.90;;;;;;5115701;28;20492;-78
2021/10/27 09:46:37;;;;;;;15.03;9.83;;;12.50;99.90;;;;;;5096092;27;20529;-78
2021/10/27 10:06:22;;;;;;;13.67;10.30;;;13.30;99.90;;;;;;5077732;28;20383;-79
2021/10/27 10:08:50;;;;;;;14.10;10.20;;;13.30;99.90;;;;;;5075658;28;20478;-78
2021/10/27 10:11:17;;;;;;;11.07;9.13;;;13.30;99.90;;;;;;5074209;28;20447;-79
2021/10/27 10:13:45;;;;;;;11.20;9.87;;;13.50;99.90;;;;;;5074262;28;20948;-79
2021/10/27 10:16:13;;;;;;;13.17;10.80;;;13.60;99.90;;;;;;5075012;28;20444;-79
2021/10/27 10:18:44;;;;;;;12.17;8.53;;;13.70;99.90;;;;;;5077233;28;20475;-79
2021/10/27 10:21:12;;;;;;;13.77;10.13;;;13.60;99.90;;;;;;5087987;28;20402;-78
2021/10/27 10:23:39;;;;;;;13.43;9.87;;;13.70;99.90;;;;;;5075403;28;20510;-79
2021/10/27 10:26:08;;;;;;;13.20;10.10;;;13.90;99.90;;;;;;5073872;28;20489;-78
2021/10/27 10:28:39;;;;;;;16.10;10.10;;;13.90;99.90;;;;;;5072756;28;20465;-77
2021/10/27 10:31:08;;;;;;;11.17;9.70;;;14.10;99.90;;;;;;5072312;28;20464;-78
2021/10/27 10:33:40;;;;;;;12.20;7.60;;;14.30;99.90;;;;;;5073439;28;20461;-79
2021/10/27 10:36:12;;;;;;;10.80;7.20;;;14.20;99.90;;;;;;5073541;28;20403;-79
2021/10/27 10:39:13;;;;;;;8.57;5.43;;;14.20;99.90;;;;;;5073656;28;20447;-79
2021/10/27 10:41:59;;;;;;;10.00;6.77;;;14.20;99.90;;;;;;5075310;28;20439;-79
2021/10/27 11:22:53;;;;;;;8.83;6.10;;;15.30;99.90;;;;;;5059533;28;21055;-80
2021/10/27 11:25:34;;;;;;;15.20;7.57;;;15.40;99.90;;;;;;5060449;28;20488;-80
2021/10/27 11:39:33;;;;;;;13.13;6.40;;;15.60;99.90;;;;;;5069646;28;20402;-85
2021/10/27 11:42:18;;;;;;;7.50;4.73;;;15.60;99.90;;;;;;5068267;28;20870;-85
2021/10/27 11:44:48;;;;;;;8.00;4.17;;;15.60;99.90;;;;;;5065019;28;20463;-85
2021/10/27 11:47:32;;;;;;;4.90;3.10;;;15.60;99.90;;;;;;5073328;28;20417;-85
2021/10/27 11:49:59;;;;;;;5.23;2.67;;;15.60;99.90;;;;;;5069856;28;20762;-85
2021/10/27 11:52:32;;;;;;;6.53;2.87;;;15.70;99.90;;;;;;5067794;28;20540;-85
2021/10/27 11:55:00;;;;;;;5.80;2.63;;;15.70;99.90;;;;;;5066154;28;20482;-85
2021/10/27 11:57:30;;;;;;;5.90;3.00;;;15.50;99.90;;;;;;5063765;28;20917;-85
2021/10/27 12:00:01;;;;;;;4.77;2.47;;;15.50;99.90;;;;;;5063299;28;20495;-85
2021/10/27 12:02:47;;;;;;;4.80;2.43;;;15.40;99.90;;;;;;5062977;28;20452;-85
2021/10/27 12:05:26;;;;;;;6.00;2.80;;;15.50;99.90;;;;;;5063903;28;20472;-85
2021/10/27 12:11:09;;;;;;;4.83;2.87;;;15.70;99.90;;;;;;5049897;28;20431;-85
2021/10/27 12:13:45;;;;;;;6.77;3.00;;;15.60;99.90;;;;;;5064147;28;20404;-85
2021/10/27 12:16:35;;;;;;;9.40;4.37;;;15.70;99.90;;;;;;5063397;28;20404;-85
2021/10/27 12:19:05;;;;;;;7.87;3.27;;;15.90;99.90;;;;;;5063721;28;20534;-85
2021/10/27 12:21:33;;;;;;;6.33;2.83;;;16.00;99.90;;;;;;5063310;28;20418;-85
2021/10/27 12:24:01;;;;;;;4.50;3.23;;;15.90;99.90;;;;;;5065010;28;20420;-86
2021/10/27 12:26:29;;;;;;;5.87;3.23;;;15.90;99.90;;;;;;5061896;28;20484;-86
2021/10/27 12:29:08;;;;;;;6.53;3.13;;;15.90;99.90;;;;;;5060055;28;20552;-88
2021/10/27 12:31:37;;;;;;;6.60;3.73;;;15.90;99.90;;;;;;5065757;28;20895;-88
2021/10/27 12:34:20;;;;;;;4.30;2.80;;;16.10;99.90;;;;;;5061753;28;20462;-88
2021/10/27 12:36:50;;;;;;;4.97;3.60;;;16.10;99.90;;;;;;5063158;28;20425;-85
2021/10/27 12:39:21;;;;;;;7.50;3.67;;;16.20;99.90;;;;;;5066502;28;20525;-85
2021/10/27 12:42:00;;;;;;;7.70;3.93;;;16.30;99.90;;;;;;5061065;28;20438;-82
2021/10/27 12:44:28;;;;;;;7.70;3.30;;;16.20;99.90;;;;;;5061992;28;20499;-84
2021/10/27 12:47:11;;;;;;;10.53;4.40;;;16.10;99.90;;;;;;5061751;28;20540;-86
2021/10/27 12:49:39;;;;;;;5.53;3.50;;;16.10;99.90;;;;;;5063319;28;20448;-84
2021/10/27 12:52:27;;;;;;;9.23;4.10;;;16.00;99.90;;;;;;5072995;28;20427;-84
2021/10/27 12:55:28;;;;;;;6.47;3.80;;;16.00;99.90;;;;;;5071513;28;20396;-84
2021/10/27 12:58:08;;;;;;;5.93;3.27;;;16.00;99.90;;;;;;5029289;28;20436;-84
2021/10/27 13:00:49;;;;;;;5.40;3.37;;;16.10;99.90;;;;;;5070215;28;20416;-85
2021/10/27 13:03:35;;;;;;;6.23;3.43;;;16.30;99.90;;;;;;5062733;28;20420;-86
2021/10/27 13:06:12;;;;;;;7.10;3.70;;;16.20;99.90;;;;;;5062109;28;20513;-86
2021/10/27 13:11:37;;;;;;;5.33;3.20;;;16.20;99.90;;;;;;5071672;28;20380;-86
2021/10/27 13:14:14;;;;;;;5.00;3.63;;;16.30;99.90;;;;;;5069960;28;20421;-86
2021/10/27 13:19:52;;;;;;;8.90;3.77;;;16.20;99.90;;;;;;5028013;28;20427;-84
2021/10/27 13:22:32;;;;;;;7.07;3.63;;;16.30;99.90;;;;;;5062837;28;20433;-85
2021/10/27 13:30:32;;;;;;;6.10;2.80;;;16.40;99.90;;;;;;5062129;28;20405;-85
2021/10/27 13:33:01;;;;;;;4.60;2.20;;;16.30;99.90;;;;;;5069484;28;20453;-85
2021/10/27 13:35:33;;;;;;;6.60;2.90;;;16.40;99.90;;;;;;5072473;28;20421;-86
2021/10/27 13:38:00;;;;;;;5.60;2.87;;;16.30;99.90;;;;;;5072819;28;20435;-86
2021/10/27 13:40:28;;;;;;;6.17;3.57;;;16.30;99.90;;;;;;5072556;28;20420;-85
2021/10/27 13:42:59;;;;;;;6.60;3.50;;;16.30;99.90;;;;;;5072178;28;20509;-85
2021/10/27 13:45:31;;;;;;;5.70;2.77;;;16.20;99.90;;;;;;5066781;28;20635;-86
2021/10/27 13:48:08;;;;;;;6.80;3.70;;;16.20;99.90;;;;;;5065527;28;20497;-86
2021/10/27 13:59:13;;;;;;;7.30;4.07;;;16.30;99.90;;;;;;5065912;28;20491;-86
2021/10/27 14:07:17;;;;;;;8.20;4.33;;;16.30;99.90;;;;;;5061921;28;20407;-85
2021/10/27 14:09:49;;;;;;;7.00;4.80;;;16.30;99.90;;;;;;5064806;28;20469;-85
2021/10/27 14:12:37;;;;;;;8.60;5.37;;;16.30;99.90;;;;;;5066096;28;20412;-85
2021/10/27 14:15:16;;;;;;;7.27;4.67;;;16.40;99.90;;;;;;5066478;28;20405;-86
2021/10/27 14:17:59;;;;;;;7.93;3.50;;;16.30;99.90;;;;;;5064630;28;20412;-86
2021/10/27 14:40:14;;;;;;;10.23;4.80;;;16.70;99.90;;;;;;5066762;28;20528;-81
2021/10/27 14:50:20;;;;;;;7.40;4.30;;;16.80;99.90;;;;;;5067655;28;20422;-82
2021/10/27 14:58:42;;;;;;;6.17;3.70;;;16.70;99.90;;;;;;5076345;28;20435;-81
2021/10/27 15:21:33;;;;;;;13.90;6.20;;;16.50;99.90;;;;;;5065274;28;20439;-81
2021/10/27 15:24:28;;;;;;;7.07;4.10;;;16.40;99.90;;;;;;5066675;28;20444;-80
2021/10/27 15:30:06;;;;;;;9.40;4.60;;;16.40;99.90;;;;;;5073724;28;20439;-82
2021/10/27 15:32:42;;;;;;;8.30;5.57;;;16.50;99.90;;;;;;5069185;28;20426;-82
2021/10/27 15:35:31;;;;;;;8.90;4.87;;;16.40;99.90;;;;;;5066591;28;20489;-82
2021/10/27 15:40:55;;;;;;;9.43;3.93;;;16.30;99.90;;;;;;5070052;28;20407;-81
2021/10/27 15:43:40;;;;;;;8.50;4.23;;;16.30;99.90;;;;;;5072965;28;20427;-81
2021/10/27 15:51:43;;;;;;;12.33;4.20;;;16.20;99.90;;;;;;5066139;28;20448;-81
2021/10/27 15:54:14;;;;;;;8.30;4.30;;;16.10;99.90;;;;;;5066552;28;20435;-81
2021/10/27 15:56:41;;;;;;;9.50;4.97;;;16.00;99.90;;;;;;5066308;28;20397;-80
2021/10/27 15:59:08;;;;;;;7.80;4.50;;;16.00;99.90;;;;;;5070242;28;20485;-82
2021/10/27 16:01:37;;;;;;;9.03;6.13;;;16.00;99.90;;;;;;5070484;28;20459;-81
2021/10/27 16:04:04;;;;;;;13.33;5.30;;;15.90;99.90;;;;;;5068427;28;20470;-82
2021/10/27 16:06:36;;;;;;;9.13;6.17;;;15.90;99.90;;;;;;5068971;28;20487;-81
2021/10/27 16:09:06;;;;;;;6.60;4.30;;;15.80;99.90;;;;;;5069732;28;20471;-84
2021/10/27 16:11:33;;;;;;;7.10;4.57;;;15.70;99.90;;;;;;5065597;28;20470;-85
2021/10/27 16:14:00;;;;;;;11.40;5.53;;;15.60;99.90;;;;;;5066967;28;20760;-86
2021/10/27 16:19:15;;;;;;;9.87;5.27;;;15.50;99.90;;;;;;5052622;28;20439;-83
2021/10/27 16:21:43;;;;;;;11.20;4.87;;;15.30;99.90;;;;;;5065300;28;20460;-84
2021/10/27 16:24:10;;;;;;;7.50;4.53;;;15.30;99.90;;;;;;5064555;28;20451;-86
2021/10/27 16:26:37;;;;;;;15.13;5.20;;;15.20;99.90;;;;;;5063835;28;20462;-83
2021/10/27 16:29:06;;;;;;;10.33;6.10;;;15.00;99.90;;;;;;5061463;28;20454;-84
2021/10/27 16:31:34;;;;;;;10.67;5.50;;;14.90;99.90;;;;;;5060922;28;20868;-84
2021/10/27 16:34:01;;;;;;;9.90;5.50;;;14.80;99.90;;;;;;5061500;28;20551;-83
2021/10/27 16:36:29;;;;;;;7.17;4.23;;;14.70;99.90;;;;;;5062255;28;20459;-84